Time;durP1;ratioP1;P1;durP2;ratioP2;P2;SDS_P1;SDS_P2;PMS_P1;PMS_P2;Temp;Humidity;BMP_temperature;BMP_pressure;BME280_temperature;BME280_humidity;BME280_pressure;Samples;Min_cycle;Max_cycle;Signal;HPM_P1;HPM_P2
2023/03/22 00:04:43;;;;;;;11.37;7.93;;;;;10.30;100467.00;;;;9672264;30;20223;-76
2023/03/22 00:09:45;;;;;;;10.83;7.37;;;;;10.40;100469.00;;;;9655511;30;20229;-77
2023/03/22 00:14:48;;;;;;;11.97;7.33;;;;;10.40;100466.00;;;;9659743;30;20239;-77
2023/03/22 00:19:53;;;;;;;10.20;7.30;;;;;10.40;100447.00;;;;9638962;30;20673;-77
2023/03/22 00:24:55;;;;;;;12.93;6.80;;;;;10.30;100436.00;;;;9646284;30;20210;-77
2023/03/22 00:29:57;;;;;;;10.30;7.50;;;;;10.20;100445.00;;;;9683615;30;20212;-76
2023/03/22 00:35:00;;;;;;;12.87;6.87;;;;;10.20;100423.00;;;;9663224;30;20298;-77
2023/03/22 00:40:07;;;;;;;13.17;7.40;;;;;10.30;100417.00;;;;9653899;30;20206;-76
2023/03/22 00:45:11;;;;;;;12.77;7.60;;;;;10.30;100410.00;;;;9655674;30;20295;-76
2023/03/22 00:50:13;;;;;;;9.67;6.40;;;;;10.30;100399.00;;;;9653779;30;20211;-77
2023/03/22 00:55:15;;;;;;;14.43;7.00;;;;;10.30;100397.00;;;;9677830;30;20664;-77
2023/03/22 01:00:18;;;;;;;9.13;6.23;;;;;10.20;100395.00;;;;9634213;30;20192;-77
2023/03/22 01:05:20;;;;;;;10.40;6.80;;;;;10.10;100388.00;;;;9667329;30;20290;-77
2023/03/22 01:10:23;;;;;;;13.07;6.40;;;;;10.10;100381.00;;;;9662502;30;20216;-76
2023/03/22 01:15:24;;;;;;;9.33;6.00;;;;;10.10;100363.00;;;;9686117;30;20219;-77
2023/03/22 01:20:27;;;;;;;8.40;6.10;;;;;10.00;100351.00;;;;9660659;30;20523;-76
2023/03/22 01:25:29;;;;;;;9.83;5.43;;;;;10.00;100344.00;;;;9671019;30;20214;-77
2023/03/22 01:30:31;;;;;;;9.57;5.27;;;;;10.00;100337.00;;;;9631072;30;20295;-76
2023/03/22 01:35:34;;;;;;;12.27;6.03;;;;;10.00;100332.00;;;;9668498;30;20282;-77
2023/03/22 01:40:38;;;;;;;10.77;5.67;;;;;10.00;100342.00;;;;9668273;30;20271;-77
2023/03/22 01:45:45;;;;;;;13.83;5.83;;;;;10.00;100331.00;;;;9631033;30;20733;-77
2023/03/22 01:51:12;;;;;;;9.30;5.13;;;;;10.00;100318.00;;;;9650116;30;20580;-77
2023/03/22 01:56:53;;;;;;;8.27;4.70;;;;;10.00;100320.00;;;;9625235;30;20614;-77
2023/03/22 02:02:06;;;;;;;8.70;3.97;;;;;10.00;100315.00;;;;9622689;30;20283;-77
2023/03/22 02:07:14;;;;;;;9.47;4.50;;;;;9.90;100316.00;;;;9665740;30;20207;-77
2023/03/22 02:12:21;;;;;;;7.30;4.27;;;;;10.00;100322.00;;;;9649355;30;20220;-77
2023/03/22 02:17:41;;;;;;;8.73;4.17;;;;;10.00;100298.00;;;;9663563;30;20214;-77
2023/03/22 02:23:01;;;;;;;7.80;4.40;;;;;10.10;100297.00;;;;9688564;30;20274;-77
2023/03/22 02:28:24;;;;;;;7.83;3.97;;;;;10.20;100292.00;;;;9667093;30;20213;-77
2023/03/22 02:33:54;;;;;;;8.20;4.30;;;;;10.40;100282.00;;;;9692178;30;20220;-78
2023/03/22 02:39:07;;;;;;;7.93;3.97;;;;;10.50;100286.00;;;;9650962;30;20230;-77
2023/03/22 02:44:43;;;;;;;9.00;3.87;;;;;10.40;100272.00;;;;9681077;30;20204;-78
2023/03/22 02:50:09;;;;;;;11.23;4.53;;;;;10.50;100262.00;;;;9663889;30;20679;-75
2023/03/22 02:55:18;;;;;;;6.93;3.57;;;;;10.50;100237.00;;;;9660714;30;20317;-75
2023/03/22 03:00:20;;;;;;;8.77;3.93;;;;;10.50;100228.00;;;;9672174;30;20624;-76
2023/03/22 03:05:24;;;;;;;8.63;3.50;;;;;10.40;100234.00;;;;9669417;30;20235;-76
2023/03/22 03:10:27;;;;;;;8.97;3.47;;;;;10.40;100244.00;;;;9665308;30;20291;-76
2023/03/22 03:15:30;;;;;;;7.93;3.27;;;;;10.40;100236.00;;;;9663710;30;20587;-76
2023/03/22 03:21:03;;;;;;;8.87;3.20;;;;;10.30;100232.00;;;;9671712;30;20231;-76
2023/03/22 03:26:28;;;;;;;4.23;3.03;;;;;10.20;100239.00;;;;9663411;30;20206;-76
2023/03/22 03:31:43;;;;;;;7.53;3.40;;;;;10.20;100247.00;;;;9694122;30;20227;-75
2023/03/22 03:36:53;;;;;;;9.77;3.57;;;;;10.10;100228.00;;;;9673713;30;20261;-75
2023/03/22 03:41:56;;;;;;;7.87;3.07;;;;;10.10;100247.00;;;;9673943;30;20255;-75
2023/03/22 03:47:01;;;;;;;8.03;2.97;;;;;10.10;100241.00;;;;9672780;30;20867;-75
2023/03/22 03:52:04;;;;;;;5.13;2.20;;;;;10.10;100234.00;;;;9673159;30;20226;-75
2023/03/22 03:57:06;;;;;;;8.33;3.37;;;;;10.10;100224.00;;;;9673094;30;20218;-76
2023/03/22 04:02:09;;;;;;;7.37;2.60;;;;;10.10;100241.00;;;;9658752;30;20576;-76
2023/03/22 04:07:11;;;;;;;5.07;2.37;;;;;10.00;100229.00;;;;9672668;30;20305;-75
2023/03/22 04:12:14;;;;;;;5.43;2.67;;;;;10.00;100240.00;;;;9642322;30;20271;-75
2023/03/22 04:17:21;;;;;;;5.63;3.13;;;;;9.90;100241.00;;;;9672708;30;20221;-75
2023/03/22 04:22:24;;;;;;;9.17;3.13;;;;;9.90;100230.00;;;;9658288;30;20657;-75
2023/03/22 04:27:26;;;;;;;8.03;2.87;;;;;9.90;100243.00;;;;9670757;30;20243;-76
2023/03/22 04:32:34;;;;;;;7.93;3.13;;;;;10.00;100246.00;;;;9685255;30;20227;-76
2023/03/22 04:37:36;;;;;;;10.43;3.00;;;;;10.00;100239.00;;;;9679253;30;20284;-76
2023/03/22 04:42:46;;;;;;;6.57;3.07;;;;;10.10;100226.00;;;;9642617;30;20216;-75
2023/03/22 04:48:03;;;;;;;9.93;2.90;;;;;10.10;100228.00;;;;9671941;30;20198;-75
2023/03/22 04:53:07;;;;;;;6.30;3.20;;;;;10.10;100225.00;;;;9643081;30;20234;-75
2023/03/22 04:58:09;;;;;;;13.17;4.20;;;;;10.10;100232.00;;;;9671625;30;20942;-76
2023/03/22 05:03:11;;;;;;;9.57;4.30;;;;;10.10;100219.00;;;;9663551;30;20634;-76
2023/03/22 05:08:19;;;;;;;11.40;3.73;;;;;10.20;100231.00;;;;9661852;30;20204;-75
2023/03/22 05:13:26;;;;;;;7.40;3.27;;;;;10.10;100233.00;;;;9642419;30;20286;-76
2023/03/22 05:18:31;;;;;;;9.33;3.70;;;;;10.10;100234.00;;;;9643467;30;20192;-75
2023/03/22 05:23:33;;;;;;;12.37;3.77;;;;;10.00;100224.00;;;;9671091;30;20200;-75
2023/03/22 05:28:38;;;;;;;9.30;4.10;;;;;10.10;100234.00;;;;9659038;30;20191;-76
2023/03/22 05:33:46;;;;;;;10.03;3.23;;;;;10.10;100236.00;;;;9668011;30;20581;-76
2023/03/22 05:38:51;;;;;;;10.60;3.17;;;;;10.20;100253.00;;;;9672806;30;20892;-76
2023/03/22 05:43:53;;;;;;;10.37;3.37;;;;;10.20;100260.00;;;;9645317;30;20224;-75
2023/03/22 05:48:55;;;;;;;7.93;3.17;;;;;10.20;100254.00;;;;9667917;30;20211;-75
2023/03/22 05:53:57;;;;;;;8.33;3.50;;;;;10.30;100249.00;;;;9682864;30;20212;-75
2023/03/22 05:59:07;;;;;;;7.83;2.63;;;;;10.30;100248.00;;;;9646547;30;20211;-76
2023/03/22 06:04:09;;;;;;;10.77;2.87;;;;;10.40;100243.00;;;;9643367;30;20200;-76
2023/03/22 06:09:38;;;;;;;7.10;2.60;;;;;10.40;100253.00;;;;9663529;30;20336;-76
2023/03/22 06:14:43;;;;;;;8.47;2.20;;;;;10.40;100251.00;;;;9676400;30;20231;-75
2023/03/22 06:20:13;;;;;;;6.43;2.03;;;;;10.50;100244.00;;;;9665798;30;20214;-76
2023/03/22 06:25:20;;;;;;;7.87;2.00;;;;;10.50;100254.00;;;;9661388;30;20365;-77
2023/03/22 06:30:24;;;;;;;8.73;2.13;;;;;10.50;100250.00;;;;9658543;30;20208;-77
2023/03/22 06:35:59;;;;;;;9.73;2.77;;;;;10.50;100238.00;;;;9670067;30;20254;-77
2023/03/22 06:41:21;;;;;;;13.77;3.20;;;;;10.60;100241.00;;;;9666589;30;20991;-77
2023/03/22 06:46:25;;;;;;;10.67;2.37;;;;;10.90;100240.00;;;;9649162;30;20211;-77
2023/03/22 06:51:37;;;;;;;7.17;2.83;;;;;11.10;100242.00;;;;9648443;30;20711;-77
2023/03/22 06:56:39;;;;;;;10.47;3.10;;;;;11.10;100234.00;;;;9688359;30;20208;-77
2023/03/22 07:01:41;;;;;;;9.30;3.20;;;;;11.30;100235.00;;;;9642449;30;20203;-77
2023/03/22 07:06:45;;;;;;;8.00;2.87;;;;;11.40;100232.00;;;;9673633;30;20202;-77
2023/03/22 07:11:48;;;;;;;7.97;2.40;;;;;11.70;100232.00;;;;9662176;30;20218;-77
2023/03/22 07:16:50;;;;;;;7.30;2.60;;;;;12.30;100236.00;;;;9659048;30;20220;-78
2023/03/22 07:21:54;;;;;;;10.07;2.77;;;;;13.10;100233.00;;;;9663490;30;20203;-78
2023/03/22 07:26:58;;;;;;;7.77;1.60;;;;;13.80;100228.00;;;;9652312;30;20204;-77
2023/03/22 07:32:02;;;;;;;8.40;2.20;;;;;14.30;100223.00;;;;9675062;30;20227;-78
2023/03/22 07:37:19;;;;;;;7.23;1.90;;;;;14.50;100230.00;;;;9652338;30;20211;-78
2023/03/22 07:42:21;;;;;;;6.43;2.10;;;;;14.10;100212.00;;;;9674944;30;20207;-78
2023/03/22 07:47:52;;;;;;;7.03;2.30;;;;;13.90;100224.00;;;;9661753;30;20203;-78
2023/03/22 07:53:23;;;;;;;12.33;2.47;;;;;13.70;100233.00;;;;9650120;30;20238;-78
2023/03/22 07:58:26;;;;;;;7.90;2.53;;;;;13.80;100252.00;;;;9669607;30;20231;-77
2023/03/22 08:03:31;;;;;;;7.60;2.30;;;;;13.70;100250.00;;;;9625039;30;20239;-77
2023/03/22 08:08:37;;;;;;;6.73;1.97;;;;;13.60;100245.00;;;;9668849;30;20687;-77
2023/03/22 08:13:40;;;;;;;11.30;2.20;;;;;13.90;100248.00;;;;9672799;30;20464;-78
2023/03/22 08:18:44;;;;;;;6.57;1.93;;;;;13.90;100249.00;;;;9640421;30;20204;-78
2023/03/22 08:23:47;;;;;;;9.93;2.30;;;;;13.70;100237.00;;;;9658011;30;20196;-78
2023/03/22 08:29:09;;;;;;;10.07;2.57;;;;;13.80;100250.00;;;;9661949;30;20982;-77
2023/03/22 08:34:11;;;;;;;7.67;2.00;;;;;14.30;100246.00;;;;9651182;30;20322;-79
2023/03/22 08:39:14;;;;;;;8.93;3.53;;;;;14.90;100247.00;;;;9658010;30;20208;-77
2023/03/22 08:44:27;;;;;;;6.70;2.17;;;;;15.20;100234.00;;;;9645493;30;20203;-78
2023/03/22 08:49:30;;;;;;;11.50;2.20;;;;;15.00;100222.00;;;;9628781;30;20353;-78
2023/03/22 08:54:39;;;;;;;8.35;1.85;;;;;14.60;100227.00;;;;9658651;30;20234;-77
2023/03/22 09:00:15;;;;;;;8.27;2.57;;;;;14.10;100228.00;;;;9662408;30;20212;-78
2023/03/22 09:05:31;;;;;;;8.57;2.60;;;;;14.10;100216.00;;;;9629542;30;20208;-77
2023/03/22 09:10:33;;;;;;;10.13;2.70;;;;;14.10;100221.00;;;;9634938;30;20219;-78
2023/03/22 09:15:35;;;;;;;8.43;2.40;;;;;14.40;100226.00;;;;9682854;30;20692;-78
2023/03/22 09:20:46;;;;;;;8.93;2.37;;;;;14.80;100210.00;;;;9674193;30;20202;-78
2023/03/22 09:25:53;;;;;;;7.47;2.20;;;;;15.30;100209.00;;;;9668353;30;20199;-78
2023/03/22 09:31:07;;;;;;;8.18;2.55;;;;;15.20;100209.00;;;;9664795;30;20215;-78
2023/03/22 09:36:13;;;;;;;9.77;2.88;;;;;14.40;100211.00;;;;9674145;30;20235;-79
2023/03/22 09:41:26;;;;;;;7.25;2.10;;;;;13.90;100213.00;;;;9685320;30;20694;-78
2023/03/22 09:46:32;;;;;;;8.07;2.90;;;;;13.80;100211.00;;;;9664707;30;20204;-77
2023/03/22 09:51:40;;;;;;;8.77;2.20;;;;;13.70;100207.00;;;;9656780;30;20247;-78
2023/03/22 09:56:47;;;;;;;8.43;2.30;;;;;13.60;100212.00;;;;9670911;30;20220;-77
2023/03/22 10:01:56;;;;;;;5.50;2.00;;;;;13.60;100217.00;;;;9661962;30;20243;-78
2023/03/22 10:07:17;;;;;;;5.20;2.13;;;;;13.50;100206.00;;;;9660323;30;20220;-77
2023/03/22 10:12:30;;;;;;;7.40;2.30;;;;;13.70;100218.00;;;;9684976;30;20294;-79
2023/03/22 10:17:35;;;;;;;4.37;1.80;;;;;13.50;100197.00;;;;9650603;30;20310;-78
2023/03/22 10:22:42;;;;;;;9.20;2.87;;;;;13.50;100207.00;;;;9696415;30;20223;-77
2023/03/22 10:27:47;;;;;;;7.37;2.10;;;;;13.70;100203.00;;;;9690206;30;20660;-78
2023/03/22 10:33:00;;;;;;;7.50;2.30;;;;;13.50;100216.00;;;;9665433;30;20232;-78
2023/03/22 10:38:06;;;;;;;6.53;1.50;;;;;13.40;100205.00;;;;9672798;30;20250;-79
2023/03/22 10:43:26;;;;;;;4.77;1.67;;;;;13.20;100222.00;;;;9675003;30;20195;-78
2023/03/22 10:48:32;;;;;;;3.87;1.63;;;;;13.10;100223.00;;;;9674209;30;20222;-78
2023/03/22 10:53:42;;;;;;;5.60;1.93;;;;;13.40;100202.00;;;;9666480;30;21165;-78
2023/03/22 10:58:53;;;;;;;7.63;1.80;;;;;14.00;100214.00;;;;9678277;30;20199;-78
2023/03/22 11:04:06;;;;;;;3.33;2.00;;;;;14.30;100207.00;;;;9660294;30;20188;-78
2023/03/22 11:09:17;;;;;;;6.13;1.57;;;;;14.30;100200.00;;;;9651944;30;20760;-78
2023/03/22 11:14:43;;;;;;;3.37;1.87;;;;;14.30;100200.00;;;;9689068;30;20220;-78
2023/03/22 11:20:05;;;;;;;5.47;1.70;;;;;14.30;100191.00;;;;9677695;30;20298;-78
2023/03/22 11:25:17;;;;;;;7.07;2.30;;;;;14.30;100186.00;;;;9662222;30;20701;-78
2023/03/22 11:30:25;;;;;;;5.90;1.93;;;;;14.10;100183.00;;;;9656719;30;20236;-78
2023/03/22 11:35:29;;;;;;;5.43;1.70;;;;;13.90;100204.00;;;;9637139;30;20905;-78
2023/03/22 11:40:35;;;;;;;4.87;1.53;;;;;14.10;100193.00;;;;9689642;30;20222;-78
2023/03/22 11:45:42;;;;;;;7.73;2.70;;;;;14.50;100192.00;;;;9639535;30;20570;-79
2023/03/22 11:50:45;;;;;;;6.32;2.20;;;;;15.10;100176.00;;;;9659844;30;20274;-78
2023/03/22 11:55:50;;;;;;;7.80;2.67;;;;;16.10;100164.00;;;;9659018;30;20195;-79
2023/03/22 12:00:58;;;;;;;7.10;2.17;;;;;16.80;100156.00;;;;9647602;30;20198;-80
2023/03/22 12:06:13;;;;;;;6.95;2.70;;;;;16.50;100198.00;;;;9643419;30;20204;-80
2023/03/22 12:11:27;;;;;;;5.07;2.28;;;;;15.80;100159.00;;;;9652580;30;20710;-79
2023/03/22 12:16:46;;;;;;;5.60;2.30;;;;;16.60;100146.00;;;;9646012;30;20201;-81
2023/03/22 12:21:50;;;;;;;6.45;2.65;;;;;16.30;100149.00;;;;9669191;30;20212;-81
2023/03/22 12:27:23;;;;;;;6.95;2.20;;;;;15.90;100153.00;;;;9632125;30;20208;-81
2023/03/22 12:32:51;;;;;;;7.20;3.08;;;;;15.00;100174.00;;;;9662199;30;20239;-80
2023/03/22 12:38:26;;;;;;;7.53;2.47;;;;;14.70;100162.00;;;;9685250;30;20200;-80
2023/03/22 12:43:55;;;;;;;5.25;2.45;;;;;14.30;100174.00;;;;9632762;30;20250;-80
2023/03/22 12:49:28;;;;;;;7.10;2.83;;;;;14.00;100172.00;;;;9669041;30;20294;-81
2023/03/22 12:54:48;;;;;;;9.27;3.20;;;;;13.90;100168.00;;;;9661416;30;20224;-81
2023/03/22 12:59:54;;;;;;;6.90;3.67;;;;;14.10;100154.00;;;;9650605;30;20200;-80
2023/03/22 13:04:59;;;;;;;7.93;3.73;;;;;14.40;100163.00;;;;9647351;30;20200;-80
2023/03/22 13:10:35;;;;;;;7.03;3.27;;;;;14.40;100173.00;;;;9661038;30;20213;-80
2023/03/22 13:15:42;;;;;;;9.10;4.00;;;;;14.20;100171.00;;;;9668662;30;20286;-80
2023/03/22 13:21:17;;;;;;;7.30;3.70;;;;;14.10;100168.00;;;;9637451;30;20247;-81
2023/03/22 13:26:26;;;;;;;9.33;3.70;;;;;14.00;100167.00;;;;9671029;30;20238;-81
2023/03/22 13:31:59;;;;;;;7.73;3.40;;;;;13.90;100164.00;;;;9646934;30;20273;-81
2023/03/22 13:37:02;;;;;;;9.27;3.50;;;;;13.70;100154.00;;;;9637784;30;20230;-80
2023/03/22 13:42:25;;;;;;;7.17;3.17;;;;;13.60;100169.00;;;;9653121;30;20222;-80
2023/03/22 13:47:34;;;;;;;7.93;3.17;;;;;13.50;100169.00;;;;9646213;30;20204;-81
2023/03/22 13:52:44;;;;;;;9.57;3.50;;;;;13.50;100157.00;;;;9660232;30;20742;-80
2023/03/22 13:57:57;;;;;;;8.07;3.53;;;;;13.30;100157.00;;;;9642343;30;20274;-80
2023/03/22 14:03:04;;;;;;;5.73;3.10;;;;;13.30;100153.00;;;;9654414;30;20766;-81
2023/03/22 14:08:20;;;;;;;6.70;3.20;;;;;13.20;100155.00;;;;9657446;30;20236;-78
2023/03/22 14:13:32;;;;;;;6.50;3.47;;;;;13.10;100144.00;;;;9650491;30;20227;-79
2023/03/22 14:18:38;;;;;;;7.43;3.60;;;;;13.10;100140.00;;;;9660943;30;20208;-79
2023/03/22 14:23:50;;;;;;;10.23;4.17;;;;;13.20;100129.00;;;;9667159;30;20214;-79
2023/03/22 14:28:55;;;;;;;6.90;3.70;;;;;13.40;100124.00;;;;9674285;30;20202;-78
2023/03/22 14:34:02;;;;;;;8.73;4.10;;;;;13.80;100113.00;;;;9653860;30;20323;-78
2023/03/22 14:39:22;;;;;;;7.40;4.00;;;;;13.90;100118.00;;;;9669716;30;20255;-79
2023/03/22 14:44:24;;;;;;;8.77;4.20;;;;;13.90;100113.00;;;;9671678;30;20230;-79
2023/03/22 14:49:26;;;;;;;9.03;3.53;;;;;13.60;100123.00;;;;9665393;30;20208;-78
2023/03/22 14:54:28;;;;;;;7.97;3.80;;;;;13.40;100110.00;;;;9671671;30;20258;-79
2023/03/22 14:59:30;;;;;;;9.93;4.20;;;;;13.50;100110.00;;;;9665248;30;20212;-79
2023/03/22 15:04:35;;;;;;;7.27;3.60;;;;;13.30;100107.00;;;;9656425;30;20263;-78
2023/03/22 15:09:36;;;;;;;8.57;4.00;;;;;13.10;100106.00;;;;9650224;30;20274;-78
2023/03/22 15:14:39;;;;;;;5.20;3.40;;;;;12.80;100107.00;;;;9660154;30;20232;-78
2023/03/22 15:19:45;;;;;;;5.87;3.60;;;;;12.50;100094.00;;;;9662823;30;20258;-78
2023/03/22 15:24:50;;;;;;;8.07;3.27;;;;;12.10;100100.00;;;;9648810;30;20203;-77
2023/03/22 15:29:51;;;;;;;7.27;3.13;;;;;12.00;100093.00;;;;9654711;30;20308;-77
2023/03/22 15:34:54;;;;;;;8.23;4.17;;;;;11.80;100084.00;;;;9654073;30;20227;-77
2023/03/22 15:39:56;;;;;;;7.37;3.67;;;;;11.80;100094.00;;;;9638603;30;20294;-77
2023/03/22 15:45:10;;;;;;;7.40;3.90;;;;;11.70;100094.00;;;;9603698;30;21628;-77
2023/03/22 15:50:17;;;;;;;7.57;4.40;;;;;11.80;100083.00;;;;9631428;30;20220;-77
2023/03/22 15:55:19;;;;;;;7.47;4.23;;;;;11.80;100076.00;;;;9622658;30;20227;-77
2023/03/22 16:00:31;;;;;;;8.33;4.30;;;;;11.80;100079.00;;;;9627468;30;20200;-77
2023/03/22 16:05:34;;;;;;;9.43;4.63;;;;;11.80;100079.00;;;;9646274;30;20294;-79
2023/03/22 16:10:37;;;;;;;8.57;4.57;;;;;11.80;100062.00;;;;9650003;30;20215;-79
2023/03/22 16:15:38;;;;;;;12.33;5.00;;;;;11.90;100059.00;;;;9671807;30;20224;-79
2023/03/22 16:20:40;;;;;;;9.77;5.70;;;;;12.00;100051.00;;;;9640490;30;20207;-81
2023/03/22 16:25:41;;;;;;;9.27;4.87;;;;;11.90;100050.00;;;;9615509;30;20206;-80
2023/03/22 16:30:43;;;;;;;12.40;4.73;;;;;11.80;100040.00;;;;9654981;30;20239;-79
2023/03/22 16:35:45;;;;;;;9.17;4.20;;;;;11.70;100041.00;;;;9654060;30;20228;-79
2023/03/22 16:40:51;;;;;;;7.20;4.30;;;;;11.50;99997.00;;;;9641458;30;20200;-79
2023/03/22 16:45:52;;;;;;;7.87;4.37;;;;;11.40;100023.00;;;;9626240;30;20215;-79
2023/03/22 16:50:53;;;;;;;10.93;5.93;;;;;11.50;100004.00;;;;9660240;30;20218;-80
2023/03/22 16:55:54;;;;;;;10.47;4.50;;;;;11.50;100008.00;;;;9647229;30;20603;-79
2023/03/22 17:00:56;;;;;;;10.40;4.53;;;;;11.60;100010.00;;;;9639583;30;20646;-79
2023/03/22 17:05:58;;;;;;;10.90;4.60;;;;;11.70;100016.00;;;;9614456;30;20255;-79
2023/03/22 17:10:59;;;;;;;8.27;4.03;;;;;11.60;100003.00;;;;9638013;30;20294;-79
2023/03/22 17:16:00;;;;;;;13.30;5.00;;;;;11.50;100018.00;;;;9643038;30;20219;-79
2023/03/22 17:21:01;;;;;;;10.27;4.47;;;;;11.50;100016.00;;;;9633541;30;20775;-79
2023/03/22 17:26:02;;;;;;;11.03;4.10;;;;;11.60;100016.00;;;;9638998;30;20343;-80
2023/03/22 17:31:07;;;;;;;9.70;4.47;;;;;11.50;99998.00;;;;9646292;30;20234;-79
2023/03/22 17:36:11;;;;;;;9.00;4.40;;;;;11.40;99990.00;;;;9647167;30;20224;-79
2023/03/22 17:41:13;;;;;;;7.00;4.73;;;;;11.40;99989.00;;;;9660427;30;20211;-79
2023/03/22 17:46:14;;;;;;;10.00;4.30;;;;;11.40;99982.00;;;;9661013;30;20245;-78
2023/03/22 17:51:15;;;;;;;7.97;3.77;;;;;11.40;99977.00;;;;9635464;30;20935;-78
2023/03/22 17:56:16;;;;;;;9.80;4.40;;;;;11.40;99980.00;;;;9577289;30;20231;-77
2023/03/22 18:01:17;;;;;;;8.23;4.13;;;;;11.40;99988.00;;;;9632458;30;20827;-77
2023/03/22 18:06:18;;;;;;;9.10;4.43;;;;;11.40;99982.00;;;;9643189;30;20207;-77
2023/03/22 18:11:19;;;;;;;7.23;4.70;;;;;11.40;99988.00;;;;9632281;30;20199;-78
2023/03/22 18:16:20;;;;;;;10.37;4.30;;;;;11.40;99975.00;;;;9660359;30;20211;-77
2023/03/22 18:21:21;;;;;;;10.03;4.30;;;;;11.50;99964.00;;;;9642197;30;20207;-78
2023/03/22 18:26:23;;;;;;;11.03;4.50;;;;;11.50;99975.00;;;;9661588;30;20286;-77
2023/03/22 18:31:25;;;;;;;8.63;4.57;;;;;11.60;99982.00;;;;9649595;30;20351;-77
2023/03/22 18:42:34;;;;;;;10.17;4.50;;;;;11.70;99981.00;;;;9810465;24;20264;-75
2023/03/22 18:47:36;;;;;;;7.63;4.30;;;;;11.70;99969.00;;;;9585940;30;21119;-76
2023/03/22 18:52:37;;;;;;;7.13;4.17;;;;;11.70;99972.00;;;;9534506;30;20238;-76
2023/03/22 18:57:38;;;;;;;7.53;4.20;;;;;11.60;99968.00;;;;9558976;30;20217;-76
2023/03/22 19:02:39;;;;;;;11.83;4.23;;;;;11.50;99972.00;;;;9568896;30;20379;-75
2023/03/22 19:07:41;;;;;;;8.07;4.00;;;;;11.40;99969.00;;;;9571534;30;20268;-75
2023/03/22 19:12:44;;;;;;;10.67;5.20;;;;;11.50;99967.00;;;;9584406;30;20230;-75
2023/03/22 19:17:45;;;;;;;12.33;4.37;;;;;11.60;99965.00;;;;9605178;30;20260;-75
2023/03/22 19:22:46;;;;;;;6.93;4.50;;;;;11.60;99972.00;;;;9554897;30;20320;-76
2023/03/22 19:27:47;;;;;;;7.87;4.27;;;;;11.70;99966.00;;;;9604592;30;20217;-76
2023/03/22 19:32:48;;;;;;;8.53;5.10;;;;;11.70;99960.00;;;;9629941;30;20225;-75
2023/03/22 19:37:50;;;;;;;6.27;3.60;;;;;11.70;99950.00;;;;9631263;30;20214;-75
2023/03/22 19:42:51;;;;;;;9.30;4.27;;;;;11.50;99946.00;;;;9618280;30;20214;-75
2023/03/22 19:47:51;;;;;;;8.87;3.77;;;;;11.40;99951.00;;;;9645161;30;20217;-75
2023/03/22 19:52:52;;;;;;;9.47;3.90;;;;;11.40;99930.00;;;;9643530;30;20214;-75
2023/03/22 19:57:57;;;;;;;7.20;4.30;;;;;11.40;99915.00;;;;9624355;30;20217;-75
2023/03/22 20:02:58;;;;;;;9.13;4.43;;;;;11.40;99936.00;;;;9657894;30;20203;-75
2023/03/22 20:07:59;;;;;;;4.50;3.50;;;;;11.40;99924.00;;;;9641426;30;21850;-76
2023/03/22 20:13:00;;;;;;;6.67;3.40;;;;;11.50;99912.00;;;;9613096;30;20228;-76
2023/03/22 20:18:01;;;;;;;5.87;4.23;;;;;11.50;99922.00;;;;9633417;30;20209;-76
2023/03/22 20:23:01;;;;;;;4.63;3.70;;;;;11.60;99916.00;;;;9630865;30;20213;-76
2023/03/22 20:28:02;;;;;;;7.30;2.97;;;;;11.60;99901.00;;;;9567537;30;20228;-75
2023/03/22 20:33:03;;;;;;;8.67;4.27;;;;;11.70;99895.00;;;;9604529;30;20213;-75
2023/03/22 20:38:06;;;;;;;9.97;3.30;;;;;11.70;99875.00;;;;9672240;30;20209;-77
2023/03/22 20:43:08;;;;;;;7.47;3.50;;;;;11.80;99876.00;;;;9699496;30;20207;-78
2023/03/22 20:48:09;;;;;;;3.83;2.57;;;;;11.80;99873.00;;;;9730598;30;20207;-78
2023/03/22 20:53:10;;;;;;;9.07;3.00;;;;;11.90;99896.00;;;;9735910;30;20218;-78
2023/03/22 20:58:11;;;;;;;7.43;2.97;;;;;11.90;99903.00;;;;9722470;30;20217;-77
2023/03/22 21:03:13;;;;;;;6.17;3.00;;;;;11.90;99899.00;;;;9717543;30;20202;-78
2023/03/22 21:08:14;;;;;;;3.50;2.27;;;;;12.00;99893.00;;;;9715029;30;20215;-78
2023/03/22 21:13:15;;;;;;;7.97;2.77;;;;;12.00;99885.00;;;;9727016;30;20218;-78
2023/03/22 21:18:20;;;;;;;6.30;2.70;;;;;12.00;99895.00;;;;9697733;30;20590;-77
2023/03/22 21:23:21;;;;;;;4.13;2.53;;;;;12.00;99886.00;;;;9732256;30;20202;-78
2023/03/22 21:28:25;;;;;;;5.67;2.77;;;;;12.00;99894.00;;;;9705709;30;20206;-77
2023/03/22 21:33:26;;;;;;;7.67;2.47;;;;;12.10;99893.00;;;;9698621;30;20241;-77
2023/03/22 21:38:33;;;;;;;3.83;2.40;;;;;12.20;99900.00;;;;9693906;30;20233;-77
2023/03/22 21:43:36;;;;;;;2.93;2.00;;;;;12.30;99890.00;;;;9707385;30;20302;-77
2023/03/22 21:48:43;;;;;;;5.07;2.37;;;;;12.30;99877.00;;;;9716832;30;20214;-78
2023/03/22 21:53:44;;;;;;;6.50;2.47;;;;;12.40;99878.00;;;;9723168;30;20701;-78
2023/03/22 21:58:45;;;;;;;6.20;2.30;;;;;12.40;99872.00;;;;9708360;30;20210;-78
2023/03/22 22:03:47;;;;;;;5.73;2.40;;;;;12.40;99874.00;;;;9707420;30;20260;-78
2023/03/22 22:08:48;;;;;;;5.83;3.37;;;;;12.40;99869.00;;;;9720848;30;20730;-78
2023/03/22 22:13:49;;;;;;;2.93;2.20;;;;;12.30;99875.00;;;;9707707;30;20207;-77
2023/03/22 22:18:51;;;;;;;4.23;2.47;;;;;12.40;99874.00;;;;9712070;30;20730;-79
2023/03/22 22:23:52;;;;;;;4.30;2.47;;;;;12.30;99857.00;;;;9714864;30;20649;-77
2023/03/22 22:28:56;;;;;;;5.73;2.50;;;;;12.30;99853.00;;;;9691036;30;20268;-78
2023/03/22 22:33:59;;;;;;;3.90;2.40;;;;;12.20;99854.00;;;;9705527;30;20266;-78
2023/03/22 22:39:02;;;;;;;6.90;3.17;;;;;12.30;99844.00;;;;9716054;30;20268;-78
2023/03/22 22:44:03;;;;;;;4.33;2.87;;;;;12.40;99847.00;;;;9703609;30;20549;-77
2023/03/22 22:49:04;;;;;;;4.20;3.00;;;;;12.40;99840.00;;;;9723019;30;20213;-78
2023/03/22 22:54:05;;;;;;;5.07;2.77;;;;;12.40;99839.00;;;;9681208;30;20222;-78
2023/03/22 22:59:06;;;;;;;3.93;3.07;;;;;12.40;99833.00;;;;9713097;30;20354;-77
2023/03/22 23:04:07;;;;;;;5.43;3.77;;;;;12.50;99811.00;;;;9719889;30;20198;-78
2023/03/22 23:09:10;;;;;;;4.63;3.23;;;;;12.50;99808.00;;;;9710564;30;20206;-78
2023/03/22 23:14:11;;;;;;;6.50;3.57;;;;;12.40;99808.00;;;;9697929;30;20863;-78
2023/03/22 23:19:14;;;;;;;4.73;2.80;;;;;12.50;99791.00;;;;9709890;30;20575;-78
2023/03/22 23:24:15;;;;;;;3.43;2.53;;;;;12.50;99802.00;;;;9724502;30;20210;-77
2023/03/22 23:29:16;;;;;;;4.97;3.17;;;;;12.60;99802.00;;;;9693204;30;20207;-77
2023/03/22 23:34:19;;;;;;;3.83;2.67;;;;;12.60;99796.00;;;;9718630;30;20222;-78
2023/03/22 23:39:22;;;;;;;5.47;3.40;;;;;12.70;99799.00;;;;9726442;30;20214;-77
2023/03/22 23:44:23;;;;;;;3.97;3.00;;;;;12.70;99788.00;;;;9711032;30;20285;-78
2023/03/22 23:49:25;;;;;;;4.17;3.40;;;;;12.70;99776.00;;;;9719597;30;20206;-78
2023/03/22 23:54:26;;;;;;;5.33;3.53;;;;;12.70;99774.00;;;;9696475;30;20219;-78
2023/03/22 23:59:27;;;;;;;4.97;3.57;;;;;12.70;99771.00;;;;9732931;30;20195;-78
